Аэропорт: Сары-Арка. Караганда

ICAO: UAKK

METAR:
2020-06-01 00:30:00
UAKK 010030Z 04003MPS 020V090 CAVOK 19/06 Q1011 R23/0///70 NOSIG RMK QFE712/0949
METAR:
2020-05-31 23:00:00
TAF UAKK 312300Z 0100/0124 23007MPS 9999 SCT030 SCT100 TX33/0111Z TN15/3124Z BECMG 0104/0106 27007MPS TEMPO 0108/0114 30009MPS SCT030CB BECMG 0116/0118 VRB02MPS